KCQW Airport (Cheraw Muni/Lynch Bellinger Field) Information

FAA: CQW - ICAO: KCQW

KCQW Airport Location

State South Carolina
County Chesterfield
City Cheraw
KCQW Airport is 3 miles northwest of Cheraw, SC.
Latitude 34-42-46.3000N
Longitude 079-57-25.2000W
Elevation 238ft

KCQW Airport METARs

METAR KCQW 282215Z AUTO VRB04KT 10SM CLR 29/14 A2988 RMK AO2 PWINO
Altimeter 29.88"
Temperature 29.0°C (84.2°F)
Wind 0° at 4KT
Clouds Skies are clear.
Visibility 10.0mi
Time observed: 2022-05-28T22:15:00Z

KCQW Airport Details

Status Operational
Activation February 1945
Ownership Public
Usage Public
Chart CHARLOTTE
ATC on-site No
Beacon schedule sunset-sunrise
Beacon color clear green

KCQW Airport Contacts

Owner TOWN OF CHERAW
Owner address P O BOX 111, CHERAW, SC 29520
Owner phone 843-537-7283
Manager PAUL EUBANKS
Manager address P.O. BOX 149, BAMBERG, SC 29003
Manager phone (803) 245-3110

KCQW Airport (Cheraw Muni/Lynch Bellinger Field) Radio Frequencies

KCQW (Airport) Radio Frequencies

UNICOM 122.8
Common traffic advisory frequency (CTAF) 122.8